Time;durP1;ratioP1;P1;durP2;ratioP2;P2;SDS_P1;SDS_P2;PMS_P1;PMS_P2;Temp;Humidity;BMP_temperature;BMP_pressure;BME280_temperature;BME280_humidity;BME280_pressure;Samples;Min_cycle;Max_cycle;Signal;HPM_P1;HPM_P2
2021/08/04 00:02:18;;;;;;;39.63;23.33;;;;;;;12.60;100.00;101310.81;5265803;28;20077;-68
2021/08/04 00:04:48;;;;;;;37.38;23.10;;;;;;;12.53;100.00;101315.16;5265211;28;20016;-68
2021/08/04 00:07:19;;;;;;;42.97;24.48;;;;;;;12.45;100.00;101312.50;5264817;28;20374;-68
2021/08/04 00:09:49;;;;;;;44.75;25.80;;;;;;;12.35;100.00;101314.47;5264636;28;20066;-68
2021/08/04 00:12:20;;;;;;;46.22;25.83;;;;;;;12.29;100.00;101315.97;5265083;28;20396;-68
2021/08/04 00:14:50;;;;;;;52.78;27.05;;;;;;;12.21;100.00;101317.84;5265321;28;20107;-68
2021/08/04 00:17:21;;;;;;;36.70;20.98;;;;;;;12.16;100.00;101315.63;5265076;28;20078;-68
2021/08/04 00:19:51;;;;;;;41.33;24.10;;;;;;;12.09;100.00;101319.97;5264053;28;20025;-68
2021/08/04 00:22:22;;;;;;;46.70;26.63;;;;;;;12.03;100.00;101320.63;5264930;28;20380;-68
2021/08/04 00:24:52;;;;;;;43.03;24.52;;;;;;;12.02;100.00;101321.66;5264948;28;20499;-68
2021/08/04 00:27:24;;;;;;;46.40;25.30;;;;;;;12.00;100.00;101321.81;5265120;28;20070;-68
2021/08/04 00:29:55;;;;;;;46.28;25.50;;;;;;;12.01;100.00;101326.19;5264213;28;20054;-68
2021/08/04 00:32:26;;;;;;;46.15;26.58;;;;;;;12.04;100.00;101322.31;5264446;28;20035;-68
2021/08/04 00:34:57;;;;;;;46.40;26.23;;;;;;;12.05;100.00;101318.63;5264754;28;20455;-68
2021/08/04 00:37:28;;;;;;;54.22;28.85;;;;;;;12.06;100.00;101323.00;5265065;28;20099;-68
2021/08/04 00:39:58;;;;;;;46.38;25.23;;;;;;;11.99;100.00;101320.13;5264207;28;20128;-68
2021/08/04 00:42:29;;;;;;;43.92;25.27;;;;;;;11.91;100.00;101322.78;5264690;28;20077;-68
2021/08/04 00:44:59;;;;;;;48.78;26.30;;;;;;;11.84;100.00;101319.91;5264285;28;20066;-68
2021/08/04 00:47:30;;;;;;;42.25;25.30;;;;;;;11.78;100.00;101317.84;5264847;28;20030;-68
2021/08/04 00:50:02;;;;;;;44.25;25.30;;;;;;;11.71;100.00;101319.50;5264172;28;20115;-68
2021/08/04 00:52:32;;;;;;;45.67;25.13;;;;;;;11.67;100.00;101324.34;5264516;28;20027;-68
2021/08/04 00:55:03;;;;;;;51.17;26.70;;;;;;;11.65;100.00;101322.84;5264499;28;20032;-68
2021/08/04 00:57:34;;;;;;;55.13;27.95;;;;;;;11.58;100.00;101321.78;5263931;28;20016;-68
2021/08/04 01:00:05;;;;;;;48.97;27.02;;;;;;;11.54;100.00;101326.63;5263874;28;20376;-68
2021/08/04 01:02:40;;;;;;;51.83;27.02;;;;;;;11.50;100.00;101321.78;5264380;28;20458;-68
2021/08/04 01:05:26;;;;;;;44.40;25.17;;;;;;;11.44;100.00;101323.22;5264536;28;20023;-68
2021/08/04 01:08:06;;;;;;;41.88;24.42;;;;;;;11.43;100.00;101320.72;5264312;28;20107;-68
2021/08/04 01:10:40;;;;;;;37.85;21.25;;;;;;;11.42;100.00;101319.88;5263897;28;20020;-68
2021/08/04 01:13:26;;;;;;;41.53;23.80;;;;;;;11.39;100.00;101323.69;5264973;28;20484;-67
2021/08/04 01:16:10;;;;;;;39.78;22.70;;;;;;;11.40;100.00;101324.56;5264242;28;20111;-68
2021/08/04 01:18:52;;;;;;;38.40;23.08;;;;;;;11.41;100.00;101320.88;5264383;28;20065;-68
2021/08/04 01:21:34;;;;;;;39.78;22.35;;;;;;;11.41;100.00;101321.72;5251760;28;20103;-68
2021/08/04 01:24:28;;;;;;;41.67;23.90;;;;;;;11.47;100.00;101332.81;5260083;28;20481;-67
2021/08/04 01:27:00;;;;;;;43.42;22.80;;;;;;;11.56;100.00;101321.13;5258065;28;20032;-68
2021/08/04 01:29:31;;;;;;;55.17;29.40;;;;;;;11.60;100.00;101326.00;5263517;28;20024;-68
2021/08/04 01:32:03;;;;;;;34.10;21.13;;;;;;;11.58;100.00;101324.47;5263904;28;20028;-68
2021/08/04 01:34:37;;;;;;;40.55;23.67;;;;;;;11.51;100.00;101326.13;5263926;28;20024;-68
2021/08/04 01:37:09;;;;;;;42.38;23.67;;;;;;;11.45;100.00;101326.78;5263822;28;20047;-68
2021/08/04 01:39:40;;;;;;;43.63;25.05;;;;;;;11.38;100.00;101326.56;5263729;28;20020;-68
2021/08/04 01:42:12;;;;;;;40.17;22.75;;;;;;;11.34;100.00;101322.50;5263548;28;20054;-68
2021/08/04 01:44:43;;;;;;;39.25;21.65;;;;;;;11.30;100.00;101313.09;5264210;28;20051;-68
2021/08/04 01:47:19;;;;;;;39.05;22.00;;;;;;;11.25;100.00;101318.13;5263783;28;20049;-68
2021/08/04 01:49:52;;;;;;;44.22;22.50;;;;;;;11.19;100.00;101311.50;5263582;28;20031;-68
2021/08/04 01:52:24;;;;;;;45.45;24.73;;;;;;;11.15;100.00;101307.47;5263861;28;20020;-68
2021/08/04 01:54:56;;;;;;;47.35;26.15;;;;;;;11.12;100.00;101300.56;5263878;28;20024;-68
2021/08/04 01:57:27;;;;;;;54.53;26.98;;;;;;;11.11;100.00;101304.25;5264352;28;20430;-68
2021/08/04 01:59:58;;;;;;;47.40;25.85;;;;;;;11.10;100.00;101304.44;5262841;28;20054;-68
2021/08/04 02:02:28;;;;;;;53.78;27.35;;;;;;;11.05;100.00;101296.00;5263807;28;20388;-68
2021/08/04 02:04:59;;;;;;;53.67;27.98;;;;;;;11.02;100.00;101296.31;5250069;28;20016;-68
2021/08/04 02:07:42;;;;;;;52.97;28.08;;;;;;;11.00;100.00;101298.31;5263964;28;20074;-68
2021/08/04 02:10:18;;;;;;;44.35;23.67;;;;;;;10.96;100.00;101297.78;5263031;28;20027;-68
2021/08/04 02:12:54;;;;;;;46.10;25.00;;;;;;;11.02;100.00;101301.69;5263701;28;20026;-68
2021/08/04 02:15:29;;;;;;;49.65;21.55;;;;;;;11.11;100.00;101296.22;5263571;28;20077;-68
2021/08/04 02:18:09;;;;;;;36.00;20.90;;;;;;;11.18;100.00;101293.72;5250580;28;20026;-67
2021/08/04 02:20:45;;;;;;;61.95;30.95;;;;;;;11.29;100.00;101293.44;5262621;28;20077;-68
2021/08/04 02:23:25;;;;;;;63.95;31.08;;;;;;;11.24;100.00;101292.22;5263528;28;20027;-68
2021/08/04 02:26:05;;;;;;;80.43;33.55;;;;;;;11.17;100.00;101291.19;5263391;28;20130;-68
2021/08/04 02:28:38;;;;;;;68.90;32.40;;;;;;;11.09;100.00;101289.28;5263443;28;20024;-68
2021/08/04 02:31:13;;;;;;;55.53;28.73;;;;;;;11.00;100.00;101290.28;5262425;28;20055;-68
2021/08/04 02:33:44;;;;;;;48.35;25.73;;;;;;;10.89;100.00;101288.66;5263478;28;20483;-68
2021/08/04 02:36:15;;;;;;;61.33;28.63;;;;;;;10.93;100.00;101298.09;5262053;28;20534;-68
2021/08/04 02:38:46;;;;;;;61.58;29.50;;;;;;;10.91;100.00;101302.78;5260215;28;20020;-68
2021/08/04 02:41:17;;;;;;;75.10;33.83;;;;;;;10.87;100.00;101301.41;5262477;28;20028;-68
2021/08/04 02:43:47;;;;;;;66.97;32.63;;;;;;;10.82;100.00;101295.66;5262768;28;20020;-68
2021/08/04 02:46:18;;;;;;;69.13;32.80;;;;;;;10.75;100.00;101295.47;5263328;28;20024;-68
2021/08/04 02:48:49;;;;;;;72.32;32.58;;;;;;;10.68;100.00;101296.22;5263655;28;20016;-68
2021/08/04 02:51:22;;;;;;;74.35;34.20;;;;;;;10.63;100.00;101300.22;5262745;28;20027;-68
2021/08/04 02:53:55;;;;;;;58.67;28.08;;;;;;;10.62;100.00;101297.69;5265371;28;20526;-68
2021/08/04 02:56:27;;;;;;;63.70;30.42;;;;;;;10.67;100.00;101298.06;5267181;28;20110;-68
2021/08/04 02:58:57;;;;;;;60.75;29.00;;;;;;;10.71;100.00;101294.09;5266996;28;20028;-68
2021/08/04 03:01:28;;;;;;;52.45;26.17;;;;;;;10.69;100.00;101293.38;5266604;28;20748;-68
2021/08/04 03:03:58;;;;;;;52.92;27.65;;;;;;;10.67;100.00;101289.19;5266946;28;20020;-68
2021/08/04 03:06:29;;;;;;;61.75;28.75;;;;;;;10.61;100.00;101296.88;5266381;28;20095;-68
2021/08/04 03:08:59;;;;;;;64.72;29.95;;;;;;;10.55;100.00;101289.44;5266325;28;20040;-67
2021/08/04 03:11:30;;;;;;;69.25;32.97;;;;;;;10.49;100.00;101292.75;5266896;28;20020;-67
2021/08/04 03:14:00;;;;;;;72.63;32.42;;;;;;;10.44;100.00;101295.06;5266511;28;20133;-68
2021/08/04 03:16:31;;;;;;;68.57;30.58;;;;;;;10.42;100.00;101304.25;5267260;28;20052;-68
2021/08/04 03:19:01;;;;;;;65.32;30.90;;;;;;;10.38;100.00;101303.69;5265713;28;20020;-67
2021/08/04 03:21:32;;;;;;;77.88;35.38;;;;;;;10.34;100.00;101305.00;5265852;28;20028;-68
2021/08/04 03:24:02;;;;;;;73.82;33.95;;;;;;;10.29;100.00;101312.66;5266422;28;20024;-68
2021/08/04 03:26:34;;;;;;;72.25;33.40;;;;;;;10.25;100.00;101309.47;5267052;28;20032;-67
2021/08/04 03:29:04;;;;;;;83.57;35.35;;;;;;;10.22;100.00;101308.88;5265670;28;20034;-68
2021/08/04 03:31:35;;;;;;;67.28;30.60;;;;;;;10.18;100.00;101311.00;5266154;28;20508;-67
2021/08/04 03:34:05;;;;;;;67.53;32.58;;;;;;;10.16;100.00;101304.97;5266318;28;20407;-67
2021/08/04 03:36:36;;;;;;;175.18;38.58;;;;;;;10.12;100.00;101309.78;5266760;28;20051;-68
2021/08/04 03:39:06;;;;;;;118.75;44.92;;;;;;;10.10;100.00;101308.28;5266010;28;20046;-67
2021/08/04 03:41:37;;;;;;;86.75;37.33;;;;;;;10.07;100.00;101304.03;5266226;28;20036;-67
2021/08/04 03:44:07;;;;;;;76.28;36.83;;;;;;;10.05;100.00;101308.72;5265492;28;20397;-67
2021/08/04 03:46:38;;;;;;;80.82;36.28;;;;;;;10.03;100.00;101312.53;5266127;28;20028;-67
2021/08/04 03:49:08;;;;;;;140.55;38.53;;;;;;;9.99;100.00;101320.06;5265782;28;20028;-67
2021/08/04 03:51:39;;;;;;;104.28;40.67;;;;;;;9.96;100.00;101316.81;5266396;28;20095;-67
2021/08/04 03:54:09;;;;;;;83.00;37.47;;;;;;;9.94;100.00;101318.78;5269635;28;20724;-67
2021/08/04 03:56:40;;;;;;;79.13;32.92;;;;;;;9.93;100.00;101317.94;5265850;28;20024;-68
2021/08/04 03:59:10;;;;;;;74.57;32.17;;;;;;;9.97;100.00;101318.50;5265532;28;20031;-67
2021/08/04 04:01:41;;;;;;;69.15;32.05;;;;;;;10.01;100.00;101326.09;5266153;28;20474;-67
2021/08/04 04:04:11;;;;;;;78.35;34.63;;;;;;;9.99;100.00;101321.88;5265666;28;20372;-67
2021/08/04 04:06:41;;;;;;;81.45;35.47;;;;;;;9.92;100.00;101321.63;5266073;28;20024;-67
2021/08/04 04:09:12;;;;;;;84.28;35.95;;;;;;;9.89;100.00;101318.41;5263548;28;20446;-67
2021/08/04 04:11:42;;;;;;;82.97;36.35;;;;;;;9.85;100.00;101336.63;5265949;28;20020;-67
2021/08/04 04:14:13;;;;;;;69.60;31.90;;;;;;;9.83;100.00;101330.56;5265365;28;20516;-68
2021/08/04 04:16:43;;;;;;;70.20;32.45;;;;;;;9.83;100.00;101333.25;5265982;28;20081;-67
2021/08/04 04:19:14;;;;;;;83.25;34.03;;;;;;;9.83;100.00;101333.25;5264823;28;20508;-67
2021/08/04 04:21:45;;;;;;;78.30;35.13;;;;;;;9.83;100.00;101334.09;5265412;28;20028;-67
2021/08/04 04:24:15;;;;;;;64.78;30.20;;;;;;;9.86;100.00;101338.31;5265409;28;20080;-67
2021/08/04 04:26:46;;;;;;;80.25;34.85;;;;;;;9.90;100.00;101347.75;5265905;28;20032;-67
2021/08/04 04:29:16;;;;;;;70.13;31.58;;;;;;;9.92;100.00;101345.75;5264536;28;20373;-67
2021/08/04 04:31:47;;;;;;;72.15;31.88;;;;;;;9.97;100.00;101356.88;5265104;28;20101;-67
2021/08/04 04:34:17;;;;;;;73.97;33.30;;;;;;;10.04;100.00;101341.88;5264776;28;20035;-67
2021/08/04 04:36:48;;;;;;;78.78;34.20;;;;;;;10.17;100.00;101340.66;5265399;28;20547;-67
2021/08/04 04:39:19;;;;;;;74.40;31.48;;;;;;;10.29;100.00;101342.16;5264724;28;20031;-67
2021/08/04 04:41:50;;;;;;;72.28;33.22;;;;;;;10.41;100.00;101342.78;5264785;28;20056;-67
2021/08/04 04:44:20;;;;;;;71.43;33.88;;;;;;;10.54;100.00;101346.78;5263765;28;20024;-67
2021/08/04 04:46:51;;;;;;;90.97;39.50;;;;;;;10.68;100.00;101344.53;5272700;22;20020;-78
2021/08/04 04:49:21;;;;;;;88.05;36.22;;;;;;;10.79;100.00;101349.66;5225719;28;20048;-79
2021/08/04 04:51:52;;;;;;;81.57;36.30;;;;;;;10.89;100.00;101345.91;5220744;28;20044;-79
2021/08/04 04:54:22;;;;;;;72.50;34.40;;;;;;;10.97;100.00;101339.72;5200957;28;20421;-79
2021/08/04 04:56:53;;;;;;;83.35;36.67;;;;;;;11.08;100.00;101342.16;5226562;28;20044;-79
2021/08/04 04:59:23;;;;;;;80.45;36.80;;;;;;;11.23;100.00;101350.47;5208373;28;20075;-78
2021/08/04 05:01:54;;;;;;;80.80;36.15;;;;;;;11.38;100.00;101345.38;5226375;28;20029;-79
2021/08/04 05:04:24;;;;;;;97.85;40.75;;;;;;;11.54;100.00;101342.75;5212234;28;20443;-79
2021/08/04 05:06:54;;;;;;;88.35;39.10;;;;;;;11.78;100.00;101341.19;5225872;28;20135;-79
2021/08/04 05:09:25;;;;;;;76.82;36.28;;;;;;;11.96;100.00;101346.50;5225236;28;20105;-79
2021/08/04 05:11:55;;;;;;;82.53;37.10;;;;;;;12.14;100.00;101344.53;5225391;28;20025;-78
2021/08/04 05:14:26;;;;;;;79.13;35.85;;;;;;;12.38;100.00;101344.56;5225279;28;20385;-79
2021/08/04 05:16:56;;;;;;;77.63;36.90;;;;;;;12.64;100.00;101349.81;5224680;28;20136;-79
2021/08/04 05:19:27;;;;;;;84.25;38.00;;;;;;;12.80;100.00;101353.53;5224806;28;20032;-79
2021/08/04 05:21:57;;;;;;;73.70;36.15;;;;;;;12.97;100.00;101352.53;5224747;28;20108;-79
2021/08/04 05:24:28;;;;;;;74.78;37.95;;;;;;;13.29;100.00;101361.59;5225002;28;20021;-78
2021/08/04 05:26:58;;;;;;;75.88;35.78;;;;;;;13.46;100.00;101352.47;5224918;28;20017;-80
2021/08/04 05:29:29;;;;;;;73.00;34.83;;;;;;;13.57;100.00;101357.47;5224574;28;20033;-80
2021/08/04 05:31:59;;;;;;;69.38;34.35;;;;;;;13.67;100.00;101355.44;5228702;28;20386;-80
2021/08/04 05:34:30;;;;;;;64.88;34.35;;;;;;;13.78;100.00;101358.75;5230384;28;20107;-81
2021/08/04 05:37:00;;;;;;;60.85;31.23;;;;;;;13.85;100.00;101354.34;5231236;28;20029;-77
2021/08/04 05:39:30;;;;;;;56.10;29.23;;;;;;;13.89;100.00;101356.50;5230727;28;20025;-78
2021/08/04 05:42:01;;;;;;;52.05;29.88;;;;;;;14.05;100.00;101354.75;5228702;28;20406;-80
2021/08/04 05:44:31;;;;;;;54.60;29.85;;;;;;;13.95;100.00;101365.75;5228938;28;20045;-79
2021/08/04 05:47:02;;;;;;;55.67;28.98;;;;;;;14.21;100.00;101366.31;5210780;28;20537;-78
2021/08/04 05:49:33;;;;;;;48.20;26.95;;;;;;;14.16;100.00;101363.31;5229916;28;20021;-78
2021/08/04 05:52:04;;;;;;;47.60;26.70;;;;;;;14.27;100.00;101362.06;5230362;28;20497;-78
2021/08/04 05:54:34;;;;;;;45.28;25.80;;;;;;;14.38;100.00;101358.94;5230801;28;20048;-78
2021/08/04 05:57:04;;;;;;;44.28;25.00;;;;;;;14.50;100.00;101357.53;5213010;28;20029;-78
2021/08/04 05:59:35;;;;;;;46.25;26.98;;;;;;;14.67;100.00;101374.47;5230303;28;20100;-79
2021/08/04 06:02:06;;;;;;;45.13;24.05;;;;;;;14.87;100.00;101357.78;5231391;28;20028;-79
2021/08/04 06:04:36;;;;;;;41.33;24.40;;;;;;;14.98;100.00;101360.88;5213090;28;20105;-77
2021/08/04 06:07:07;;;;;;;38.03;23.45;;;;;;;14.95;100.00;101346.88;5228684;28;20064;-79
2021/08/04 06:09:37;;;;;;;38.88;23.13;;;;;;;15.16;100.00;101357.84;5229693;28;20106;-80
2021/08/04 06:12:09;;;;;;;34.28;21.48;;;;;;;15.33;100.00;101349.56;5230295;28;20025;-79
2021/08/04 06:14:40;;;;;;;34.80;21.05;;;;;;;15.41;100.00;101349.47;5230571;28;20055;-79
2021/08/04 06:17:10;;;;;;;44.65;22.98;;;;;;;15.48;100.00;101350.41;5231000;28;20025;-79
2021/08/04 06:19:41;;;;;;;33.00;20.75;;;;;;;15.58;100.00;101356.38;5230446;28;20042;-79
2021/08/04 06:22:11;;;;;;;32.88;20.67;;;;;;;15.95;100.00;101358.13;5212826;28;20100;-79
2021/08/04 06:24:42;;;;;;;32.70;20.77;;;;;;;16.16;100.00;101359.22;5228982;28;20052;-83
2021/08/04 06:27:13;;;;;;;29.73;20.00;;;;;;;16.49;100.00;101360.44;5213462;28;20394;-80
2021/08/04 06:29:44;;;;;;;31.88;19.75;;;;;;;16.61;100.00;101363.44;5234684;28;20055;-80
2021/08/04 06:32:15;;;;;;;35.75;20.17;;;;;;;16.44;100.00;101367.44;5234230;28;20115;-79
2021/08/04 06:34:45;;;;;;;35.78;20.50;;;;;;;15.97;100.00;101372.34;5233968;28;20019;-79
2021/08/04 06:37:16;;;;;;;45.97;21.58;;;;;;;16.18;100.00;101368.84;5216311;28;20119;-79
2021/08/04 06:39:47;;;;;;;31.10;18.85;;;;;;;16.39;100.00;101372.59;5234168;28;20031;-79
2021/08/04 06:42:18;;;;;;;34.80;20.25;;;;;;;16.46;100.00;101371.63;5234710;28;20032;-78
2021/08/04 06:44:49;;;;;;;29.63;17.95;;;;;;;16.45;100.00;101363.72;5234008;28;20070;-80
2021/08/04 06:47:19;;;;;;;30.10;17.50;;;;;;;16.36;100.00;101360.28;5234663;28;20093;-79
2021/08/04 06:49:50;;;;;;;29.40;18.92;;;;;;;16.27;100.00;101362.28;5234405;28;20028;-80
2021/08/04 06:52:20;;;;;;;27.02;17.65;;;;;;;16.39;100.00;101359.91;5233987;28;20518;-79
2021/08/04 06:54:51;;;;;;;25.45;15.60;;;;;;;16.64;100.00;101354.94;5233927;28;20040;-80
2021/08/04 06:57:21;;;;;;;25.50;16.60;;;;;;;16.79;100.00;101355.75;5216649;28;20150;-78
2021/08/04 06:59:52;;;;;;;28.75;18.50;;;;;;;16.78;100.00;101364.91;5233671;28;20497;-80
2021/08/04 07:02:22;;;;;;;29.10;18.45;;;;;;;17.01;100.00;101358.44;5234186;28;20514;-79
2021/08/04 07:04:53;;;;;;;25.25;16.70;;;;;;;17.29;100.00;101356.56;5202817;28;20021;-76
2021/08/04 07:07:23;;;;;;;26.25;16.67;;;;;;;17.38;100.00;101356.41;5233213;28;20024;-80
2021/08/04 07:09:54;;;;;;;26.88;15.82;;;;;;;17.46;100.00;101364.38;5233161;28;20020;-78
2021/08/04 07:12:24;;;;;;;30.88;18.80;;;;;;;17.23;100.00;101359.25;5215336;28;20108;-80
2021/08/04 07:14:55;;;;;;;29.52;17.23;;;;;;;17.20;100.00;101359.63;5233281;28;20017;-78
2021/08/04 07:17:25;;;;;;;29.38;18.17;;;;;;;17.16;100.00;101356.47;5232571;28;20126;-79
2021/08/04 07:19:55;;;;;;;30.20;18.92;;;;;;;17.11;100.00;101364.34;5214633;28;20039;-79
2021/08/04 07:22:26;;;;;;;33.67;19.17;;;;;;;16.64;100.00;101367.66;5210310;28;20033;-78
2021/08/04 07:24:56;;;;;;;54.35;28.75;;;;;;;16.94;100.00;101365.66;5222270;28;20013;-78
2021/08/04 07:27:27;;;;;;;51.65;28.38;;;;;;;17.00;100.00;101362.16;5231914;28;20060;-79
2021/08/04 07:29:57;;;;;;;36.13;22.63;;;;;;;16.90;100.00;101370.63;5214195;28;20307;-81
2021/08/04 07:32:28;;;;;;;32.92;20.45;;;;;;;17.01;100.00;101369.25;5232276;28;20024;-80
2021/08/04 07:35:00;;;;;;;31.40;18.67;;;;;;;16.88;100.00;101364.59;5232296;28;20020;-78
2021/08/04 07:37:32;;;;;;;31.00;18.30;;;;;;;17.13;100.00;101362.28;5232002;28;20029;-79
2021/08/04 07:40:07;;;;;;;27.63;18.60;;;;;;;17.15;100.00;101367.50;5213693;28;20039;-79
2021/08/04 07:42:38;;;;;;;31.38;19.88;;;;;;;17.07;100.00;101373.94;5232214;28;20033;-79
2021/08/04 07:45:09;;;;;;;30.85;20.13;;;;;;;16.88;100.00;101374.59;5232117;28;20036;-77
2021/08/04 07:47:40;;;;;;;27.25;19.23;;;;;;;17.30;100.00;101374.50;5231394;28;20036;-77
2021/08/04 07:50:11;;;;;;;29.05;19.10;;;;;;;17.43;100.00;101381.06;5231295;28;20029;-79
2021/08/04 07:52:42;;;;;;;28.73;18.70;;;;;;;17.71;100.00;101376.44;5231327;28;20021;-80
2021/08/04 07:55:15;;;;;;;26.42;17.95;;;;;;;18.03;100.00;101374.13;5231585;28;20017;-80
2021/08/04 07:57:46;;;;;;;33.65;18.13;;;;;;;18.08;100.00;101377.91;5231719;28;20029;-79
2021/08/04 08:00:17;;;;;;;25.42;17.63;;;;;;;18.40;100.00;101375.50;5230989;28;20033;-80
2021/08/04 08:02:47;;;;;;;28.05;18.10;;;;;;;18.40;100.00;101371.94;5229592;28;20085;-79
2021/08/04 08:05:18;;;;;;;31.17;18.13;;;;;;;18.76;100.00;101364.28;5221011;28;20016;-79
2021/08/04 08:07:50;;;;;;;30.55;17.30;;;;;;;18.91;100.00;101366.00;5232295;28;20040;-80
2021/08/04 08:10:22;;;;;;;26.83;17.30;;;;;;;18.88;100.00;101365.38;5231971;28;20044;-77
2021/08/04 08:12:53;;;;;;;27.50;19.05;;;;;;;18.79;100.00;101369.34;5214075;28;20458;-80
2021/08/04 08:15:24;;;;;;;31.15;17.80;;;;;;;18.72;100.00;101375.78;5232224;28;20056;-80
2021/08/04 08:17:54;;;;;;;28.77;18.00;;;;;;;18.52;100.00;101373.00;5231983;28;20100;-80
2021/08/04 08:20:26;;;;;;;33.95;21.08;;;;;;;18.80;100.00;101372.88;5231314;28;20048;-79
2021/08/04 08:22:57;;;;;;;27.02;17.85;;;;;;;19.04;100.00;101376.88;5231710;28;20029;-79
2021/08/04 08:25:28;;;;;;;30.23;18.08;;;;;;;18.65;100.00;101378.47;5231833;28;20032;-78
2021/08/04 08:27:59;;;;;;;26.92;17.38;;;;;;;18.69;100.00;101373.50;5231753;28;20076;-80
2021/08/04 08:30:30;;;;;;;28.38;17.58;;;;;;;19.01;100.00;101372.69;5231302;28;20029;-79
2021/08/04 08:33:00;;;;;;;27.42;16.73;;;;;;;19.06;100.00;101372.06;5213912;28;20103;-81
2021/08/04 08:35:31;;;;;;;26.38;17.00;;;;;;;19.25;100.00;101362.22;5231529;28;20031;-80
2021/08/04 08:38:01;;;;;;;31.50;19.95;;;;;;;19.18;100.00;101373.09;5231393;28;20036;-81
2021/08/04 08:40:32;;;;;;;29.13;18.00;;;;;;;19.09;100.00;101375.19;5226607;28;20021;-77
2021/08/04 08:43:03;;;;;;;32.88;18.88;;;;;;;19.17;100.00;101368.69;5231476;28;20032;-81
2021/08/04 08:45:33;;;;;;;27.75;17.65;;;;;;;19.64;100.00;101374.94;5231512;28;20477;-81
2021/08/04 08:48:04;;;;;;;25.38;17.10;;;;;;;19.83;100.00;101374.06;5231479;28;20033;-84
2021/08/04 08:50:40;;;;;;;25.02;17.02;;;;;;;19.95;100.00;101373.38;5231684;28;20033;-84
2021/08/04 08:53:10;;;;;;;23.13;15.57;;;;;;;20.35;100.00;101377.59;5232220;28;20080;-79
2021/08/04 08:55:41;;;;;;;31.88;17.50;;;;;;;20.04;100.00;101372.09;5231726;28;20028;-80
2021/08/04 08:58:11;;;;;;;25.80;17.13;;;;;;;19.82;100.00;101368.81;5232439;28;20029;-80
2021/08/04 09:00:43;;;;;;;31.60;17.00;;;;;;;19.81;100.00;101364.41;5231469;28;20016;-79
2021/08/04 09:03:13;;;;;;;24.63;17.08;;;;;;;19.96;100.00;101361.44;5225702;28;20489;-80
2021/08/04 09:05:50;;;;;;;28.13;16.40;;;;;;;20.50;100.00;101368.31;5223926;28;20021;-80
2021/08/04 09:08:24;;;;;;;29.85;14.75;;;;;;;20.88;100.00;101358.19;5218754;28;20029;-80
2021/08/04 09:10:56;;;;;;;19.95;13.55;;;;;;;21.57;100.00;101355.47;5231582;28;20063;-79
2021/08/04 09:13:34;;;;;;;24.15;13.60;;;;;;;21.66;100.00;101360.41;5231370;28;20032;-78
2021/08/04 09:16:07;;;;;;;22.30;13.57;;;;;;;22.12;100.00;101364.50;5231728;28;20055;-79
2021/08/04 09:18:41;;;;;;;22.05;13.23;;;;;;;22.37;100.00;101358.91;5232171;28;20162;-80
2021/08/04 09:21:12;;;;;;;17.70;11.73;;;;;;;22.49;100.00;101358.94;5231207;28;20025;-79
2021/08/04 09:23:45;;;;;;;12.90;8.05;;;;;;;22.58;100.00;101362.19;5218222;28;20029;-80
2021/08/04 09:26:18;;;;;;;17.25;10.63;;;;;;;22.62;100.00;101358.75;5231875;28;20139;-80
2021/08/04 09:28:57;;;;;;;13.43;9.13;;;;;;;22.45;100.00;101357.75;5230568;28;20127;-80
2021/08/04 09:31:40;;;;;;;20.17;12.30;;;;;;;22.39;100.00;101355.94;5230914;28;20481;-80
2021/08/04 09:34:34;;;;;;;16.05;10.25;;;;;;;21.98;100.00;101352.88;5217425;28;20029;-80
2021/08/04 09:37:14;;;;;;;17.92;12.00;;;;;;;21.60;100.00;101355.84;5230740;28;20036;-80
2021/08/04 09:39:57;;;;;;;15.77;11.23;;;;;;;21.77;100.00;101350.63;5230758;28;20017;-81
2021/08/04 09:42:44;;;;;;;18.10;11.00;;;;;;;22.04;100.00;101347.53;5201437;28;20021;-79
2021/08/04 09:45:17;;;;;;;19.55;12.15;;;;;;;22.31;100.00;101351.63;5230733;28;20048;-81
2021/08/04 09:48:03;;;;;;;19.58;12.55;;;;;;;22.07;100.00;101347.09;5230848;28;20025;-80
2021/08/04 09:50:49;;;;;;;19.20;12.57;;;;;;;22.22;100.00;101345.66;5218390;28;20029;-77
2021/08/04 09:53:29;;;;;;;17.95;12.45;;;;;;;22.66;100.00;101339.97;5231196;28;20027;-80
2021/08/04 09:56:12;;;;;;;23.85;14.45;;;;;;;22.05;100.00;101341.03;5230492;28;20036;-80
2021/08/04 09:58:45;;;;;;;19.63;12.65;;;;;;;22.02;100.00;101338.75;5219373;28;20063;-79
2021/08/04 10:01:17;;;;;;;25.70;14.63;;;;;;;22.05;100.00;101335.56;5230346;28;20052;-80
2021/08/04 10:04:01;;;;;;;19.25;13.45;;;;;;;21.98;100.00;101331.00;5220221;28;20021;-78
2021/08/04 10:06:33;;;;;;;24.10;14.25;;;;;;;22.36;100.00;101332.63;5230207;28;20029;-80
2021/08/04 10:09:05;;;;;;;20.30;13.27;;;;;;;22.43;100.00;101329.78;5230030;28;20020;-80
2021/08/04 10:11:50;;;;;;;22.60;14.65;;;;;;;22.41;100.00;101330.03;5228763;28;20025;-83
2021/08/04 10:14:21;;;;;;;24.30;14.27;;;;;;;22.18;100.00;101327.22;5228903;28;20029;-78
2021/08/04 10:16:52;;;;;;;25.42;14.35;;;;;;;21.98;100.00;101325.53;5229045;28;20516;-80
2021/08/04 10:19:25;;;;;;;23.13;15.23;;;;;;;21.80;100.00;101322.88;5225232;28;20028;-80
2021/08/04 10:21:56;;;;;;;22.17;14.68;;;;;;;21.66;100.00;101321.34;5225245;28;20043;-78
2021/08/04 10:24:27;;;;;;;23.63;13.80;;;;;;;21.82;100.00;101328.09;5225066;28;20025;-80
2021/08/04 10:26:58;;;;;;;18.08;11.48;;;;;;;22.18;100.00;101317.13;5225400;28;20548;-79
2021/08/04 10:29:29;;;;;;;25.50;14.40;;;;;;;22.51;100.00;101314.97;5225216;28;20025;-79
2021/08/04 10:32:00;;;;;;;18.08;11.93;;;;;;;22.64;100.00;101315.59;5225006;28;20548;-80
2021/08/04 10:34:31;;;;;;;21.15;14.73;;;;;;;22.51;100.00;101317.72;5224681;28;20055;-81
2021/08/04 10:37:02;;;;;;;23.60;14.57;;;;;;;22.90;100.00;101317.09;5225101;28;20032;-80
2021/08/04 10:39:32;;;;;;;25.52;15.00;;;;;;;22.86;100.00;101312.31;5224835;28;20107;-81
2021/08/04 10:42:06;;;;;;;21.73;13.55;;;;;;;22.84;100.00;101311.69;5225151;28;20056;-81
2021/08/04 10:44:39;;;;;;;22.83;14.70;;;;;;;22.70;100.00;101314.66;5224775;28;20025;-78
2021/08/04 10:47:26;;;;;;;19.70;13.90;;;;;;;22.66;100.00;101302.53;5224534;28;20287;-81
2021/08/04 10:50:10;;;;;;;25.05;12.27;;;;;;;22.78;100.00;101304.44;5208219;28;20025;-80
2021/08/04 10:53:00;;;;;;;20.73;12.43;;;;;;;22.93;100.00;101313.03;5224887;28;20111;-80
2021/08/04 10:55:52;;;;;;;20.88;12.93;;;;;;;23.24;100.00;101296.28;5212161;28;20021;-80
2021/08/04 10:58:23;;;;;;;17.08;12.48;;;;;;;23.52;100.00;101303.72;5207806;28;20037;-79
2021/08/04 11:01:13;;;;;;;20.85;13.35;;;;;;;23.55;100.00;101301.59;5224767;28;20036;-79
2021/08/04 11:03:44;;;;;;;15.15;11.52;;;;;;;23.85;100.00;101305.00;5213667;28;20112;-79
2021/08/04 11:06:15;;;;;;;20.67;14.65;;;;;;;24.15;100.00;101298.44;5221562;28;20103;-80
2021/08/04 11:08:47;;;;;;;17.98;13.00;;;;;;;24.17;100.00;101296.28;5179008;28;20104;-78
2021/08/04 11:11:55;;;;;;;16.52;9.18;;;;;;;24.14;82.61;101294.84;5190300;28;20052;-79
2021/08/04 11:14:37;;;;;;;16.85;10.40;;;;;;;24.27;86.98;101288.25;5226295;28;20013;-80
2021/08/04 11:17:10;;;;;;;17.38;11.27;;;;;;;24.03;100.00;101296.56;5228316;28;20037;-80
2021/08/04 11:20:03;;;;;;;25.83;12.85;;;;;;;23.86;100.00;101298.44;5227950;28;20528;-80
2021/08/04 11:22:34;;;;;;;21.23;12.07;;;;;;;23.69;100.00;101297.50;5227296;28;20045;-81
2021/08/04 11:25:08;;;;;;;19.10;10.55;;;;;;;23.71;100.00;101293.47;5227344;28;20021;-80
2021/08/04 11:27:45;;;;;;;15.33;9.30;;;;;;;24.35;96.10;101295.22;5227593;28;20063;-79